Nearby METAR Reports

On this page are routine METAR weather reports submitted by Bureau of Meteorology Airport observation sites in and surrounding South East Queensland.

Reports are usually updated hourly. Note on small screens you wil need drag or scroll to the righ to view reports that are out of view.

 

YBBN - Brisbane Intl Ar, Australia
Distance from station: E 20km
Updated: Mon, 26-Feb-2024 12:00pm AEST
Few Clouds
Few Clouds
 Wind from ENE
Wind: ENE 13 km/h
Temperature: 30°C
Heat Index: 33°C
Dew Point: 22°C
Humidity: 62%
Barometer: 1013 hPa
Clouds: Few Clouds
Visibility: 10 km
Cloud details: Few Clouds 914 m
2024/02/26 02:00 YBBN 260200Z 07007KT 9999 FEW030 30/22 Q1013
YAMB - Amberley, Australia
Distance from station: SW 33km
Updated: Mon, 26-Feb-2024 12:00pm AEST
Partly Cloudy
Partly Cloudy
 Wind from E
Wind: E 7 km/h
Temperature: 31°C
Heat Index: 37°C
Dew Point: 24°C
Humidity: 66%
Barometer: 1013 hPa
Clouds: Partly Cloudy
Visibility: 10 km
Cloud details: Partly Cloudy 1067 m
2024/02/26 02:00 YAMB 260200Z 08004KT 9999 SCT035 31/24 Q1013
YBSU - Sunshine Coast, Australia
Distance from station: N 90km
Updated: Mon, 26-Feb-2024 12:00pm AEST
Clear
Clear
 Wind from SE
Wind: SE 19 km/h
Temperature: 29°C
Heat Index: 32°C
Dew Point: 22°C
Humidity: 66%
Barometer: 1013 hPa
Clouds: Clear
Visibility: 10 km
2024/02/26 02:00 YBSU 260200Z AUTO 14010KT 9999 // NCD 29/22 Q1013 RF00.0/000.0
 
YBCG - Coolangatta Aws, Australia
Distance from station: SSE 102km
Updated: Mon, 26-Feb-2024 12:00pm AEST
Clear
Clear
 Wind from E
Wind: E 17 km/h
Temperature: 30°C
Heat Index: 34°C
Dew Point: 23°C
Humidity: 66%
Barometer: 1013 hPa
Clouds: Clear
Visibility: 10 km
2024/02/26 02:00 YBCG 260200Z AUTO 09009KT 9999 // NCD 30/23 Q1013 RF00.0/000.0
YBWW - Toowoomba, Australia
Distance from station: W 113km
Updated: Mon, 26-Feb-2024 12:00pm AEST
Mostly Cloudy
Mostly Cloudy
 Wind from SW
Wind: SW 6 km/h
Temperature: 29°C
Heat Index: 31°C
Dew Point: 20°C
Humidity: 58%
Barometer: 1015 hPa
Clouds: Mostly Cloudy
Visibility: 10 km
Cloud details: Partly Cloudy 1372 m
Mostly Cloudy 1676 m
2024/02/26 02:00 YBWW 260200Z AUTO 23003KT 9999 // SCT045 BKN055 29/20 Q1015
YCFS - Coffs Harbour, Australia
Distance from station: S 325km
Updated: Mon, 26-Feb-2024 12:00pm AEST
Clear
Clear
 Wind from E
Wind: E 13 km/h
Temperature: 28°C
Heat Index: 30°C
Dew Point: 22°C
Humidity: 70%
Barometer: 1013 hPa
Clouds: Clear
Visibility: 10 km
2024/02/26 02:00 YCFS 260200Z AUTO 10007KT 9999 // NCD 28/22 Q1013 RF00.0/000.0
 
YGLA - Gladstone, Australia
Distance from station: NNW 429km
Updated: Mon, 26-Feb-2024 12:00pm AEST
Partly Cloudy
Partly Cloudy
 Wind from E
Wind: E 19 km/h
Temperature: 33°C
Heat Index: 38°C
Dew Point: 23°C
Humidity: 56%
Barometer: 1012 hPa
Clouds: Partly Cloudy
Visibility: 10 km
Cloud details: Partly Cloudy 1097 m
2024/02/26 02:00 YGLA 260200Z AUTO 10010KT 060V120 9999 // SCT036 33/23 Q1012
YSTW - Tamworth Airport, Australia
Distance from station: SSW 456km
Updated: Mon, 26-Feb-2024 12:00pm AEST
Clear
Clear
 Wind from NNW
Wind: NNW 15 km/h
Temperature: 32°C
Dew Point: 15°C
Humidity: 36%
Barometer: 1015 hPa
Clouds: Clear
Visibility: 10 km
2024/02/26 02:00 YSTW 260200Z AUTO 33008KT 280V350 9999 // NCD 32/15 Q1015 RF00.0/000.0

Metar display script from Saratoga-Weather.org